Royse City's Hourly Summary for Sunday, May 13, 2018
Hour Temp
(f)
RH
(%)
Solar Rad.
(MJ/m2)
Rainfall
(in)
Wind
(mph)
5/13/2018 12:00 AM 74 72 0 0 0.65
5/13/2018 1:00 AM 74 76 0 0 1.26
5/13/2018 2:00 AM 73 77 0 0 1.53
5/13/2018 3:00 AM 73 79 0 0 1.12
5/13/2018 4:00 AM 72 82 0 0 1
5/13/2018 5:00 AM 71 86 0 0 1.02
5/13/2018 6:00 AM 70 90 0 0 0.86
5/13/2018 7:00 AM 69 99 0.03 0 0.42
5/13/2018 8:00 AM 70 93 0.31 0 0.77
5/13/2018 9:00 AM 73 78 0.65 0 1.75
5/13/2018 10:00 AM 76 70 1.13 0 2.18
5/13/2018 11:00 AM 78 61 1.9 0 2.97
5/13/2018 12:00 PM 81 59 2.21 0 2.83
5/13/2018 1:00 PM 82 54 2.59 0 3.22
5/13/2018 2:00 PM 83 55 2.22 0 3.62
5/13/2018 3:00 PM 84 52 2.41 0 3
5/13/2018 4:00 PM 86 48 2.73 0 3.24
5/13/2018 5:00 PM 86 48 1.98 0 2.76
5/13/2018 6:00 PM 86 47 0.79 0 2.9
5/13/2018 7:00 PM 86 49 0.9 0 2.31
5/13/2018 8:00 PM 83 51 0.25 0 1.23
5/13/2018 9:00 PM 79 61 0 0 0.08
5/13/2018 10:00 PM 77 68 0 0 0.32
5/13/2018 11:00 PM 75 73 0 0 0.05
Data Summary 77 67 20.10 0.00 1.71